Time;durP1;ratioP1;P1;durP2;ratioP2;P2;SDS_P1;SDS_P2;PMS_P1;PMS_P2;Temp;Humidity;BMP_temperature;BMP_pressure;BME280_temperature;BME280_humidity;BME280_pressure;Samples;Min_cycle;Max_cycle;Signal;HPM_P1;HPM_P2
2020/12/28 00:00:36;;;;;;;3.53;1.30;;;23.70;53.40;;;;;;6363999;22;20042;-70
2020/12/28 00:03:42;;;;;;;5.40;1.35;;;23.70;53.40;;;;;;6365203;22;20009;-70
2020/12/28 00:06:48;;;;;;;5.15;1.60;;;23.60;53.30;;;;;;6337466;22;20426;-70
2020/12/28 00:09:54;;;;;;;4.47;1.25;;;23.60;53.30;;;;;;6363266;22;20002;-70
2020/12/28 00:13:01;;;;;;;3.13;1.25;;;23.60;53.30;;;;;;6364510;22;20025;-70
2020/12/28 00:15:46;;;;;;;;;;;23.60;53.30;;;;;;6366193;22;20367;-70
2020/12/28 00:18:53;;;;;;;5.15;1.42;;;23.60;53.30;;;;;;6363044;22;19898;-70
2020/12/28 00:21:59;;;;;;;7.10;2.13;;;23.60;53.30;;;;;;6363975;22;19994;-70
2020/12/28 00:25:05;;;;;;;4.93;1.73;;;23.50;53.30;;;;;;6361085;22;20002;-71
2020/12/28 00:28:11;;;;;;;4.30;1.05;;;23.50;53.40;;;;;;6364523;22;20055;-70
2020/12/28 00:31:17;;;;;;;6.20;1.33;;;23.50;53.50;;;;;;6363722;22;20081;-70
2020/12/28 00:34:23;;;;;;;8.18;1.40;;;23.50;53.60;;;;;;6364289;22;20456;-70
2020/12/28 00:37:29;;;;;;;3.65;1.50;;;23.50;53.60;;;;;;6364619;22;19995;-70
2020/12/28 00:40:35;;;;;;;5.38;1.45;;;23.50;53.60;;;;;;6362965;22;20498;-70
2020/12/28 00:43:41;;;;;;;4.25;0.90;;;23.50;53.60;;;;;;6363368;22;20026;-70
2020/12/28 00:46:27;;;;;;;;;;;23.50;53.60;;;;;;6365379;22;20399;-69
2020/12/28 00:49:33;;;;;;;5.07;2.08;;;23.40;53.60;;;;;;6363572;22;20336;-70
2020/12/28 00:52:39;;;;;;;2.97;1.25;;;23.40;53.60;;;;;;6361958;22;20441;-70
2020/12/28 00:55:45;;;;;;;3.30;1.10;;;23.40;53.60;;;;;;6364362;22;20120;-69
2020/12/28 00:58:54;;;;;;;3.72;0.75;;;23.40;53.50;;;;;;6363725;22;19999;-70
2020/12/28 01:02:00;;;;;;;1.95;1.20;;;23.40;53.50;;;;;;6363294;22;20029;-70
2020/12/28 01:05:06;;;;;;;2.95;0.77;;;23.40;53.50;;;;;;6363512;22;19999;-70
2020/12/28 01:08:12;;;;;;;4.78;0.90;;;23.30;53.50;;;;;;6364220;22;20071;-70
2020/12/28 01:11:18;;;;;;;3.60;1.30;;;23.30;53.60;;;;;;6363610;22;19998;-70
2020/12/28 01:14:04;;;;;;;;;;;23.30;53.70;;;;;;6363629;22;20014;-70
2020/12/28 01:17:10;;;;;;;5.25;1.58;;;23.30;53.70;;;;;;6364324;22;19981;-70
2020/12/28 01:20:16;;;;;;;3.35;1.05;;;23.30;53.80;;;;;;6363350;22;20337;-70
2020/12/28 01:23:22;;;;;;;4.45;0.98;;;23.30;53.90;;;;;;6362890;22;20341;-70
2020/12/28 01:26:28;;;;;;;3.33;0.90;;;23.30;54.00;;;;;;6364247;22;19998;-70
2020/12/28 01:29:34;;;;;;;4.68;1.17;;;23.30;54.00;;;;;;6364261;22;20437;-70
2020/12/28 01:32:41;;;;;;;1.95;1.10;;;23.30;54.10;;;;;;6363338;22;19995;-70
2020/12/28 01:35:47;;;;;;;3.08;1.15;;;23.20;54.10;;;;;;6362650;22;20006;-70
2020/12/28 01:38:33;;;;;;;;;;;23.30;54.20;;;;;;6364303;22;20013;-70
2020/12/28 01:41:39;;;;;;;11.20;1.75;;;23.20;54.30;;;;;;6363911;22;20330;-70
2020/12/28 01:44:45;;;;;;;4.07;1.13;;;23.20;54.30;;;;;;6362975;22;20003;-70
2020/12/28 01:47:51;;;;;;;6.35;1.83;;;23.20;54.50;;;;;;6363992;22;19998;-70
2020/12/28 01:50:57;;;;;;;4.22;0.82;;;23.20;54.60;;;;;;6363962;22;19999;-70
2020/12/28 01:54:03;;;;;;;3.53;1.40;;;23.10;54.60;;;;;;6362006;22;20014;-70
2020/12/28 01:57:09;;;;;;;2.90;0.98;;;23.20;54.70;;;;;;6363409;22;20005;-69
2020/12/28 02:00:16;;;;;;;5.38;1.35;;;23.10;54.70;;;;;;6363747;22;20075;-70
2020/12/28 02:03:22;;;;;;;3.85;1.13;;;23.10;54.80;;;;;;6364576;22;20059;-70
2020/12/28 02:06:28;;;;;;;4.53;1.58;;;23.10;54.90;;;;;;6362759;22;20013;-70
2020/12/28 02:09:14;;;;;;;;;;;23.10;55.00;;;;;;6364990;22;19998;-70
2020/12/28 02:12:20;;;;;;;5.72;2.17;;;23.00;55.00;;;;;;6364852;22;19899;-70
2020/12/28 02:15:27;;;;;;;3.80;1.27;;;23.00;55.00;;;;;;6362418;22;20414;-71
2020/12/28 02:18:33;;;;;;;5.88;2.58;;;23.00;55.00;;;;;;6363484;22;20078;-70
2020/12/28 02:21:40;;;;;;;3.92;1.33;;;23.00;55.10;;;;;;6364840;22;20049;-70
2020/12/28 02:24:25;;;;;;;;;;;23.00;55.20;;;;;;6364236;22;20321;-69
2020/12/28 02:27:32;;;;;;;5.35;1.40;;;23.00;55.10;;;;;;6363310;22;20350;-70
2020/12/28 02:30:39;;;;;;;2.88;1.92;;;22.90;55.10;;;;;;6363846;22;20082;-70
2020/12/28 02:33:46;;;;;;;3.85;1.92;;;22.90;55.10;;;;;;6365844;22;20002;-70
2020/12/28 02:36:52;;;;;;;3.90;1.73;;;22.90;55.20;;;;;;6364532;22;20388;-70
2020/12/28 02:39:58;;;;;;;6.28;1.25;;;22.90;55.10;;;;;;6366076;22;20434;-71
2020/12/28 02:42:44;;;;;;;;;;;22.90;55.30;;;;;;6366304;22;20621;-69
2020/12/28 02:45:50;;;;;;;5.60;1.38;;;22.80;55.20;;;;;;6364572;22;19898;-69
2020/12/28 02:48:56;;;;;;;6.30;1.42;;;22.80;55.20;;;;;;6365309;22;20010;-70
2020/12/28 02:52:03;;;;;;;4.32;1.63;;;22.80;55.30;;;;;;6366281;22;20033;-70
2020/12/28 02:54:49;;;;;;;;;;;22.80;55.30;;;;;;6366261;22;19998;-69
2020/12/28 02:57:55;;;;;;;4.45;1.77;;;22.80;55.40;;;;;;6364234;22;19902;-70
2020/12/28 03:01:01;;;;;;;3.50;1.45;;;22.80;55.40;;;;;;6365431;22;20076;-69
2020/12/28 03:04:07;;;;;;;6.10;1.60;;;22.70;55.40;;;;;;6365914;22;19998;-71
2020/12/28 03:06:53;;;;;;;;;;;22.70;55.50;;;;;;6365287;22;20025;-69
2020/12/28 03:10:00;;;;;;;3.97;1.50;;;22.70;55.50;;;;;;6366183;22;19940;-70
2020/12/28 03:13:06;;;;;;;6.18;1.55;;;22.70;55.50;;;;;;6363683;22;20010;-69
2020/12/28 03:16:12;;;;;;;3.83;1.65;;;22.60;55.50;;;;;;6364563;22;20116;-70
2020/12/28 03:19:19;;;;;;;7.47;2.35;;;22.60;55.60;;;;;;6364764;22;20006;-69
2020/12/28 03:22:25;;;;;;;3.70;1.35;;;22.60;55.50;;;;;;6365158;22;20002;-70
2020/12/28 03:25:31;;;;;;;4.93;1.40;;;22.60;55.60;;;;;;6364838;22;20048;-69
2020/12/28 03:28:37;;;;;;;6.47;1.85;;;22.60;55.50;;;;;;6335740;22;20624;-69
2020/12/28 03:31:46;;;;;;;8.68;1.60;;;22.60;55.60;;;;;;6365224;22;20051;-69
2020/12/28 03:34:52;;;;;;;8.65;1.75;;;22.50;55.60;;;;;;6365388;22;20083;-70
2020/12/28 03:37:59;;;;;;;6.45;2.47;;;22.60;55.60;;;;;;6363278;22;20408;-70
2020/12/28 03:41:05;;;;;;;4.95;1.63;;;22.50;55.70;;;;;;6364440;22;20099;-70
2020/12/28 03:44:11;;;;;;;8.60;2.83;;;22.50;55.80;;;;;;6336881;22;20311;-70
2020/12/28 03:47:17;;;;;;;3.95;1.70;;;22.50;55.80;;;;;;6365480;22;19999;-71
2020/12/28 03:50:23;;;;;;;4.63;1.42;;;22.40;55.90;;;;;;6363742;22;20079;-69
2020/12/28 03:53:30;;;;;;;9.80;3.45;;;22.50;56.10;;;;;;6364399;22;20010;-72
2020/12/28 03:56:16;;;;;;;;;;;22.50;56.20;;;;;;6335629;22;20003;-70
2020/12/28 03:59:38;;;;;;;18.38;12.13;;;22.40;56.30;;;;;;6361829;22;19961;-70
2020/12/28 04:02:24;;;;;;;;;;;22.50;56.40;;;;;;6364346;22;20036;-70
2020/12/28 04:05:31;;;;;;;12.07;5.97;;;22.40;56.50;;;;;;6365171;22;20328;-70
2020/12/28 04:08:37;;;;;;;10.10;5.05;;;22.40;56.60;;;;;;6363394;22;20074;-71
2020/12/28 04:11:43;;;;;;;9.65;2.70;;;22.40;56.50;;;;;;6363767;22;19999;-69
2020/12/28 04:14:49;;;;;;;5.45;2.80;;;22.40;56.60;;;;;;6363365;22;20085;-71
2020/12/28 04:17:55;;;;;;;14.73;8.55;;;22.40;56.70;;;;;;6364598;22;20006;-70
2020/12/28 04:21:02;;;;;;;11.15;6.63;;;22.40;56.80;;;;;;6363022;22;20007;-71
2020/12/28 04:24:09;;;;;;;9.27;5.13;;;22.40;57.00;;;;;;6363377;22;20006;-71
2020/12/28 04:27:16;;;;;;;15.93;9.25;;;22.30;57.00;;;;;;6364381;22;20491;-73
2020/12/28 04:30:22;;;;;;;16.33;13.23;;;22.30;57.10;;;;;;6363845;22;20013;-70
2020/12/28 04:33:08;;;;;;;;;;;22.30;57.20;;;;;;6364800;22;20010;-70
2020/12/28 04:36:14;;;;;;;11.88;5.75;;;22.40;57.30;;;;;;6365033;22;19937;-71
2020/12/28 04:39:20;;;;;;;6.15;4.25;;;22.40;57.40;;;;;;6365086;22;20081;-72
2020/12/28 04:42:27;;;;;;;10.90;4.22;;;22.40;57.60;;;;;;6334979;22;20361;-72
2020/12/28 04:45:33;;;;;;;18.38;10.32;;;22.40;57.70;;;;;;6364201;22;20422;-72
2020/12/28 04:48:39;;;;;;;14.52;7.45;;;22.40;58.00;;;;;;6365835;22;20030;-71
2020/12/28 04:51:45;;;;;;;10.45;5.05;;;22.40;58.10;;;;;;6365321;22;20335;-70
2020/12/28 04:54:51;;;;;;;7.07;3.20;;;22.40;58.30;;;;;;6364104;22;20006;-70
2020/12/28 04:57:57;;;;;;;6.38;2.78;;;22.40;58.40;;;;;;6365263;22;20006;-70
2020/12/28 05:01:03;;;;;;;6.85;2.88;;;22.40;58.60;;;;;;6365994;22;20010;-70
2020/12/28 05:04:10;;;;;;;4.95;2.25;;;22.40;58.60;;;;;;6364386;22;19995;-70
2020/12/28 05:07:25;;;;;;;5.88;2.45;;;22.40;58.70;;;;;;6365440;22;19998;-70
2020/12/28 05:10:31;;;;;;;6.57;3.65;;;22.50;58.90;;;;;;6365063;22;20059;-71
2020/12/28 05:13:37;;;;;;;6.38;2.72;;;22.50;58.80;;;;;;6361677;22;20010;-73
2020/12/28 05:16:43;;;;;;;8.57;2.40;;;22.50;58.90;;;;;;6363923;22;20055;-70
2020/12/28 05:19:49;;;;;;;3.50;1.63;;;22.50;58.80;;;;;;6365176;22;20634;-71
2020/12/28 05:24:43;;;;;;;6.47;2.00;;;22.50;58.70;;;;;;6366521;22;20009;-72
2020/12/28 05:27:16;;;;;;;5.43;1.80;;;22.60;58.60;;;;;;6396520;22;20013;-71
2020/12/28 05:29:44;;;;;;;8.20;1.83;;;22.60;58.50;;;;;;6395634;22;20067;-71
2020/12/28 05:32:15;;;;;;;5.63;1.70;;;22.60;58.40;;;;;;6397344;22;19994;-71
2020/12/28 05:34:45;;;;;;;7.40;1.52;;;22.60;58.20;;;;;;6397072;22;20001;-71
2020/12/28 05:37:13;;;;;;;2.35;1.23;;;22.60;58.00;;;;;;6396529;22;20025;-71
2020/12/28 05:39:41;;;;;;;6.55;2.03;;;22.70;57.90;;;;;;6396990;22;20097;-71
2020/12/28 05:44:40;;;;;;;18.10;14.85;;;22.70;57.60;;;;;;6398122;22;20338;-72
2020/12/28 05:47:15;;;;;;;16.60;13.68;;;22.80;57.40;;;;;;6396579;22;20105;-70
2020/12/28 05:49:51;;;;;;;11.27;8.98;;;22.80;57.20;;;;;;6397146;22;19998;-72
2020/12/28 05:52:18;;;;;;;10.73;7.15;;;22.80;57.10;;;;;;6399188;22;20002;-72
2020/12/28 05:54:44;;;;;;;7.57;5.57;;;22.90;56.90;;;;;;6396038;22;20022;-72
2020/12/28 05:57:11;;;;;;;8.05;5.43;;;22.90;56.80;;;;;;6396458;22;20333;-70
2020/12/28 05:59:38;;;;;;;9.20;4.60;;;22.90;56.70;;;;;;6395916;22;20360;-71
2020/12/28 06:02:47;;;;;;;6.32;3.92;;;23.00;56.70;;;;;;6396942;22;20013;-73
2020/12/28 06:05:56;;;;;;;3.63;2.67;;;23.00;56.50;;;;;;6397957;22;20002;-71
2020/12/28 06:09:02;;;;;;;6.40;2.80;;;23.00;56.30;;;;;;6397870;22;20002;-72
2020/12/28 06:12:08;;;;;;;5.32;2.35;;;23.10;56.20;;;;;;6398146;22;20000;-72
2020/12/28 06:15:17;;;;;;;5.85;1.90;;;23.10;56.00;;;;;;6399046;22;19994;-74
2020/12/28 06:18:23;;;;;;;5.70;2.60;;;23.20;56.00;;;;;;6399107;22;20005;-74
2020/12/28 06:21:32;;;;;;;3.33;2.03;;;23.20;55.90;;;;;;6397850;22;20115;-73
2020/12/28 06:24:44;;;;;;;42.33;7.22;;;23.30;55.70;;;;;;6399327;22;19994;-73
2020/12/28 06:27:31;;;;;;;43.83;8.05;;;23.30;55.60;;;;;;6398210;22;20010;-74
2020/12/28 06:30:46;;;;;;;70.80;8.68;;;23.40;55.50;;;;;;6394481;22;19994;-75
2020/12/28 06:33:52;;;;;;;58.22;9.23;;;23.40;55.50;;;;;;6397757;22;19998;-74
2020/12/28 06:36:58;;;;;;;36.92;6.05;;;23.50;55.40;;;;;;6398033;22;20101;-73
2020/12/28 06:40:04;;;;;;;21.65;4.50;;;23.50;55.30;;;;;;6397395;22;20005;-75
2020/12/28 06:43:10;;;;;;;24.20;3.35;;;23.60;55.00;;;;;;6396411;22;20024;-75
2020/12/28 06:46:16;;;;;;;12.43;2.90;;;23.60;55.10;;;;;;6370320;22;20006;-74
2020/12/28 06:49:22;;;;;;;11.10;3.47;;;23.70;55.00;;;;;;6399101;22;20306;-73
2020/12/28 06:52:28;;;;;;;15.20;4.03;;;23.70;54.80;;;;;;6397105;22;20010;-74
2020/12/28 06:55:34;;;;;;;14.48;5.93;;;23.80;54.70;;;;;;6398407;22;20432;-74
2020/12/28 06:58:40;;;;;;;9.55;4.05;;;23.80;54.40;;;;;;6398382;22;20426;-74
2020/12/28 07:01:46;;;;;;;6.95;3.38;;;23.90;54.30;;;;;;6397375;22;20010;-75
2020/12/28 07:04:32;;;;;;;;;;;23.90;54.10;;;;;;6397055;22;20008;-74
2020/12/28 07:07:41;;;;;;;8.70;2.20;;;24.00;54.00;;;;;;6398865;22;19898;-74
2020/12/28 07:10:47;;;;;;;5.13;1.67;;;24.10;53.90;;;;;;6398905;22;20006;-74
2020/12/28 07:13:54;;;;;;;5.35;1.77;;;24.10;53.60;;;;;;6397461;22;19998;-74
2020/12/28 07:17:00;;;;;;;5.28;1.85;;;24.20;53.40;;;;;;6397288;22;20456;-76
2020/12/28 07:19:46;;;;;;;;;;;24.20;53.10;;;;;;6370815;22;20049;-73
2020/12/28 07:22:52;;;;;;;6.95;1.42;;;24.20;52.90;;;;;;6397556;22;20225;-77
2020/12/28 07:25:58;;;;;;;6.70;2.20;;;24.30;52.80;;;;;;6364213;22;20018;-75
2020/12/28 07:29:04;;;;;;;8.32;1.58;;;24.30;52.60;;;;;;6366007;22;20489;-77
2020/12/28 07:32:10;;;;;;;4.50;1.35;;;24.40;52.40;;;;;;6365431;22;20020;-75
2020/12/28 07:35:16;;;;;;;4.95;1.88;;;24.40;52.20;;;;;;6365245;22;20073;-77
2020/12/28 07:38:23;;;;;;;4.85;1.50;;;24.50;52.00;;;;;;6366297;22;20044;-76
2020/12/28 07:41:08;;;;;;;;;;;24.50;51.90;;;;;;6366510;22;20044;-78
2020/12/28 07:44:14;;;;;;;6.50;1.67;;;24.60;51.60;;;;;;6364703;22;19905;-77
2020/12/28 07:47:24;;;;;;;3.75;1.80;;;24.60;51.30;;;;;;6365199;22;20057;-78
2020/12/28 07:50:30;;;;;;;5.88;1.73;;;24.70;51.00;;;;;;6365286;22;20006;-75
2020/12/28 07:53:45;;;;;;;2.45;1.30;;;24.70;50.60;;;;;;6365524;22;20022;-75
2020/12/28 07:56:54;;;;;;;5.00;1.35;;;24.80;50.40;;;;;;6361708;22;20055;-76
2020/12/28 07:59:42;;;;;;;11.75;2.58;;;24.80;50.20;;;;;;6365624;22;20628;-75
2020/12/28 08:03:06;;;;;;;5.50;2.13;;;24.90;50.10;;;;;;6366375;22;20839;-76
2020/12/28 08:06:12;;;;;;;7.78;1.88;;;24.90;49.70;;;;;;6311109;22;20006;-78
2020/12/28 08:08:58;;;;;;;;;;;25.00;49.50;;;;;;6364122;22;20009;-77
2020/12/28 08:12:04;;;;;;;16.05;3.97;;;25.00;49.10;;;;;;6365766;22;19898;-77
2020/12/28 08:14:50;;;;;;;;;;;25.00;49.00;;;;;;6364749;22;19998;-76
2020/12/28 08:17:56;;;;;;;4.97;1.50;;;25.10;48.70;;;;;;6363038;22;19920;-72
2020/12/28 08:20:41;;;;;;;;;;;25.10;48.60;;;;;;6364836;22;20025;-73
2020/12/28 08:23:47;;;;;;;5.13;1.73;;;25.10;48.30;;;;;;6364079;22;19929;-72
2020/12/28 08:26:57;;;;;;;6.65;2.20;;;25.20;48.00;;;;;;6386495;22;20364;-72
2020/12/28 08:30:03;;;;;;;7.40;1.80;;;25.20;47.90;;;;;;6368388;22;20009;-72
2020/12/28 08:32:49;;;;;;;;;;;25.30;47.90;;;;;;6398757;22;20448;-71
2020/12/28 08:35:55;;;;;;;6.63;2.38;;;25.30;47.70;;;;;;6396400;22;19967;-71
2020/12/28 08:39:01;;;;;;;6.10;1.52;;;25.30;47.70;;;;;;6393497;22;20001;-73
2020/12/28 08:42:13;;;;;;;7.03;1.70;;;25.40;47.70;;;;;;6398086;22;19998;-72
2020/12/28 08:45:19;;;;;;;7.63;2.88;;;25.40;47.60;;;;;;6397124;22;19998;-72
2020/12/28 08:48:05;;;;;;;;;;;25.50;47.60;;;;;;6397801;22;20472;-71
2020/12/28 08:51:14;;;;;;;3.75;1.80;;;25.50;47.40;;;;;;6397774;22;19898;-71
2020/12/28 08:54:20;;;;;;;13.52;2.13;;;25.60;47.40;;;;;;6396122;22;20025;-72
2020/12/28 08:57:26;;;;;;;4.00;1.60;;;25.60;47.30;;;;;;6366784;22;20361;-73
2020/12/28 09:00:09;;;;;;;;;;;25.70;47.20;;;;;;6394798;22;20106;-74
2020/12/28 09:02:37;;;;;;;3.97;1.40;;;25.70;47.00;;;;;;6397297;22;19954;-74
2020/12/28 09:05:04;;;;;;;4.28;1.60;;;25.70;46.90;;;;;;6395750;22;20005;-74
2020/12/28 09:08:10;;;;;;;2.40;1.23;;;25.80;46.80;;;;;;6396821;22;20625;-74
2020/12/28 09:10:56;;;;;;;;;;;25.80;46.50;;;;;;6396219;22;20425;-73
2020/12/28 09:13:42;;;;;;;;;;;25.80;46.00;;;;;;6395435;22;19898;-73
2020/12/28 09:16:57;;;;;;;7.70;1.77;;;25.80;45.90;;;;;;6396535;22;19981;-73
2020/12/28 09:20:03;;;;;;;5.75;2.17;;;25.90;46.20;;;;;;6396170;22;20087;-74
2020/12/28 09:22:49;;;;;;;;;;;25.90;46.10;;;;;;6396417;22;20002;-74
2020/12/28 09:25:55;;;;;;;6.10;1.95;;;25.90;46.00;;;;;;6397172;22;19979;-74
2020/12/28 09:28:39;;;;;;;;;;;25.90;46.20;;;;;;6397209;22;19994;-70
2020/12/28 09:31:45;;;;;;;5.70;1.15;;;25.90;46.60;;;;;;6396703;22;20398;-70
2020/12/28 09:34:31;;;;;;;;;;;26.00;46.00;;;;;;6369334;22;20425;-74
2020/12/28 09:37:43;;;;;;;3.05;1.20;;;26.00;45.80;;;;;;6396664;22;20333;-74
2020/12/28 09:40:10;;;;;;;4.22;1.60;;;26.10;45.90;;;;;;6396162;22;20005;-74
2020/12/28 09:43:16;;;;;;;5.07;1.23;;;26.10;45.90;;;;;;6396340;22;20105;-74
2020/12/28 09:46:01;;;;;;;;;;;26.20;45.90;;;;;;6397329;22;20073;-74
2020/12/28 09:48:46;;;;;;;3.13;1.27;;;26.30;45.90;;;;;;6396340;22;19897;-74
2020/12/28 09:51:54;;;;;;;6.10;1.70;;;26.30;45.90;;;;;;6369472;22;20309;-75
2020/12/28 09:55:00;;;;;;;4.00;1.52;;;26.30;45.80;;;;;;6397019;22;20005;-74
2020/12/28 09:57:47;;;;;;;;;;;26.40;45.80;;;;;;6396524;22;20002;-74
2020/12/28 10:00:15;;;;;;;4.82;1.63;;;26.50;45.70;;;;;;6396982;22;19917;-74
2020/12/28 10:03:21;;;;;;;5.10;2.03;;;26.50;45.80;;;;;;6396731;22;19998;-72
2020/12/28 10:06:35;;;;;;;6.05;2.50;;;26.60;45.90;;;;;;6395458;22;20438;-74
2020/12/28 10:09:04;;;;;;;4.93;1.63;;;26.70;45.80;;;;;;6397128;22;20433;-74
2020/12/28 10:12:10;;;;;;;242.40;223.27;;;26.70;45.60;;;;;;6395031;22;20069;-72
2020/12/28 10:15:16;;;;;;;13.55;9.48;;;26.80;45.00;;;;;;6395538;22;20006;-74
2020/12/28 10:18:14;;;;;;;7.57;5.10;;;26.80;44.70;;;;;;6396822;22;20032;-74
2020/12/28 10:20:44;;;;;;;6.90;3.78;;;26.80;44.50;;;;;;6396871;22;20051;-74
2020/12/28 10:23:50;;;;;;;5.13;2.78;;;26.80;44.50;;;;;;6395482;22;20025;-74
2020/12/28 10:26:56;;;;;;;3.88;2.28;;;26.80;44.40;;;;;;6396436;22;20045;-74
2020/12/28 10:30:02;;;;;;;2.85;1.63;;;26.90;44.30;;;;;;6397280;22;19998;-74
2020/12/28 10:33:08;;;;;;;4.88;1.95;;;26.90;44.10;;;;;;6395728;22;19998;-74
2020/12/28 10:36:14;;;;;;;6.00;2.40;;;26.90;43.80;;;;;;6396216;22;19998;-74
2020/12/28 10:38:41;;;;;;;4.38;1.58;;;27.00;43.80;;;;;;6368290;22;20021;-74
2020/12/28 10:41:47;;;;;;;3.08;1.05;;;27.00;43.60;;;;;;6395993;22;20001;-74
2020/12/28 10:44:53;;;;;;;4.32;1.23;;;27.00;43.40;;;;;;6395705;22;20006;-75
2020/12/28 10:48:00;;;;;;;5.50;1.55;;;27.10;43.40;;;;;;6396927;22;20310;-73
2020/12/28 10:51:06;;;;;;;2.53;1.20;;;27.10;43.20;;;;;;6396373;22;19998;-74
2020/12/28 10:54:12;;;;;;;5.60;1.98;;;27.20;43.20;;;;;;6397236;22;20025;-74
2020/12/28 10:56:38;;;;;;;3.45;1.10;;;27.20;43.10;;;;;;6398849;22;20001;-74
2020/12/28 10:59:44;;;;;;;7.72;1.40;;;27.30;43.10;;;;;;6397857;22;20043;-73
2020/12/28 11:02:50;;;;;;;4.53;1.98;;;27.30;42.90;;;;;;6397107;22;19998;-73
2020/12/28 11:05:17;;;;;;;5.25;2.28;;;27.40;43.10;;;;;;6398624;22;20328;-73
2020/12/28 11:08:23;;;;;;;4.75;1.83;;;27.40;42.80;;;;;;6397847;22;20009;-74
2020/12/28 11:11:29;;;;;;;3.00;1.50;;;27.50;42.70;;;;;;6368832;22;20370;-74
2020/12/28 11:14:35;;;;;;;4.05;1.40;;;27.50;42.60;;;;;;6398534;22;19994;-74
2020/12/28 11:17:41;;;;;;;5.88;1.60;;;27.50;42.10;;;;;;6399010;22;19998;-73
2020/12/28 11:20:47;;;;;;;4.57;1.85;;;27.60;42.20;;;;;;6397089;22;20005;-73
2020/12/28 11:23:59;;;;;;;7.32;2.28;;;27.60;42.30;;;;;;6369418;22;20363;-73
2020/12/28 11:26:30;;;;;;;3.00;1.23;;;27.70;42.50;;;;;;6398757;22;20529;-73
2020/12/28 11:28:58;;;;;;;4.10;1.25;;;27.70;42.50;;;;;;6393230;22;20325;-74
2020/12/28 11:32:04;;;;;;;4.55;2.05;;;27.80;42.50;;;;;;6397442;22;20001;-73
2020/12/28 11:35:10;;;;;;;4.57;1.30;;;27.80;42.10;;;;;;6398423;22;20065;-73
2020/12/28 11:38:16;;;;;;;5.65;1.40;;;27.80;42.00;;;;;;6396600;22;20006;-74
2020/12/28 11:41:22;;;;;;;5.45;2.15;;;27.90;41.90;;;;;;6396807;22;20433;-73
2020/12/28 11:43:48;;;;;;;3.35;1.55;;;27.90;41.60;;;;;;6369826;22;20067;-73
2020/12/28 11:46:55;;;;;;;2.55;0.95;;;28.00;41.40;;;;;;6397194;22;19998;-73
2020/12/28 11:49:22;;;;;;;5.35;1.00;;;28.00;41.30;;;;;;6396340;22;20025;-73
2020/12/28 11:52:31;;;;;;;4.78;1.25;;;28.00;41.40;;;;;;6397700;22;20006;-73
2020/12/28 11:58:22;;;;;;;5.00;1.17;;;28.10;41.70;;;;;;6397101;22;20025;-73
2020/12/28 12:00:48;;;;;;;3.10;1.33;;;28.20;41.60;;;;;;6370027;22;20059;-74
2020/12/28 12:03:15;;;;;;;2.15;0.98;;;28.20;41.50;;;;;;6396847;22;20008;-74
2020/12/28 12:05:41;;;;;;;4.18;2.00;;;28.20;41.30;;;;;;6397861;22;20043;-73
2020/12/28 12:08:07;;;;;;;3.03;1.27;;;28.30;41.10;;;;;;6396952;22;19994;-73
2020/12/28 12:10:34;;;;;;;4.95;1.58;;;28.30;40.80;;;;;;6398156;22;20391;-74
2020/12/28 12:13:00;;;;;;;3.25;1.35;;;28.30;40.70;;;;;;6398381;22;19994;-73
2020/12/28 12:16:07;;;;;;;5.00;1.45;;;28.30;40.70;;;;;;6394267;22;20306;-74
2020/12/28 12:19:13;;;;;;;4.72;1.13;;;28.40;40.60;;;;;;6394300;22;20030;-74
2020/12/28 12:21:39;;;;;;;2.83;1.42;;;28.40;40.40;;;;;;6365412;22;20002;-74
2020/12/28 12:24:06;;;;;;;10.02;2.13;;;28.50;40.40;;;;;;6393157;22;20318;-73
2020/12/28 12:26:35;;;;;;;3.80;1.20;;;28.50;40.10;;;;;;6393694;22;20456;-73
2020/12/28 12:29:03;;;;;;;3.25;1.20;;;28.50;40.30;;;;;;6393296;22;20005;-73
2020/12/28 12:31:29;;;;;;;3.92;1.23;;;28.60;39.60;;;;;;6365868;22;20049;-72
2020/12/28 12:33:56;;;;;;;4.80;1.73;;;28.60;39.50;;;;;;6392611;22;20073;-73
2020/12/28 12:36:22;;;;;;;3.85;1.88;;;28.70;39.50;;;;;;6393496;22;20006;-73
2020/12/28 12:38:49;;;;;;;4.38;2.22;;;28.80;39.30;;;;;;6393747;22;20014;-73
2020/12/28 12:41:19;;;;;;;5.90;1.42;;;28.80;39.10;;;;;;6364965;22;20005;-73
2020/12/28 12:43:46;;;;;;;5.95;2.03;;;28.80;39.00;;;;;;6393745;22;20040;-73
2020/12/28 12:46:13;;;;;;;2.97;0.95;;;28.80;39.00;;;;;;6392816;22;20365;-73
2020/12/28 12:48:40;;;;;;;7.30;2.00;;;28.90;38.90;;;;;;6394270;22;20425;-73
2020/12/28 12:51:07;;;;;;;4.65;1.50;;;28.90;38.60;;;;;;6392520;22;20011;-73
2020/12/28 12:53:34;;;;;;;3.08;1.00;;;28.90;38.60;;;;;;6394044;22;20006;-73
2020/12/28 12:56:01;;;;;;;2.15;1.10;;;29.00;39.30;;;;;;6393292;22;20002;-73
2020/12/28 12:58:27;;;;;;;3.88;1.75;;;28.90;38.60;;;;;;6393442;22;20038;-73
2020/12/28 13:00:54;;;;;;;3.33;1.42;;;28.90;38.40;;;;;;6394592;22;20093;-73
2020/12/28 13:03:21;;;;;;;1.25;1.05;;;29.00;38.70;;;;;;6392715;22;20033;-73
2020/12/28 13:05:47;;;;;;;5.97;3.30;;;29.00;38.70;;;;;;6394029;22;20519;-72
2020/12/28 13:08:14;;;;;;;15.70;9.57;;;29.10;38.50;;;;;;6392258;22;20029;-73
2020/12/28 13:10:40;;;;;;;14.93;7.40;;;29.10;37.80;;;;;;6393805;22;20006;-73
2020/12/28 13:13:07;;;;;;;8.25;4.15;;;29.10;37.80;;;;;;6391638;22;20075;-73
2020/12/28 13:15:34;;;;;;;6.80;2.55;;;29.20;37.90;;;;;;6364491;22;20045;-73
2020/12/28 13:18:00;;;;;;;10.00;2.80;;;29.20;37.70;;;;;;6393601;22;20065;-73
2020/12/28 13:20:27;;;;;;;7.85;2.97;;;29.10;37.30;;;;;;6392288;22;20013;-73
2020/12/28 13:22:53;;;;;;;5.63;2.83;;;29.10;37.20;;;;;;6393528;22;20679;-73
2020/12/28 13:25:20;;;;;;;9.05;2.40;;;29.10;36.90;;;;;;6363500;22;20437;-73
2020/12/28 13:27:47;;;;;;;5.25;1.60;;;29.10;36.80;;;;;;6394486;22;20139;-73
2020/12/28 13:30:13;;;;;;;4.03;1.88;;;29.10;36.80;;;;;;6392837;22;20318;-72
2020/12/28 13:32:43;;;;;;;11.10;1.77;;;29.10;36.90;;;;;;6393810;22;20500;-72
2020/12/28 13:35:09;;;;;;;5.05;1.20;;;29.20;37.10;;;;;;6393704;22;19998;-73
2020/12/28 13:37:36;;;;;;;8.52;1.58;;;29.20;37.00;;;;;;6392421;22;20082;-73
2020/12/28 13:40:03;;;;;;;3.60;1.35;;;29.30;37.00;;;;;;6393387;22;20085;-72
2020/12/28 13:42:30;;;;;;;7.85;1.92;;;29.30;37.00;;;;;;6392062;22;20317;-73
2020/12/28 13:44:56;;;;;;;3.97;1.60;;;29.30;36.90;;;;;;6365428;22;20031;-72
2020/12/28 13:47:23;;;;;;;4.90;1.80;;;29.30;36.90;;;;;;6391932;22;20109;-72
2020/12/28 13:49:49;;;;;;;5.10;1.33;;;29.30;36.80;;;;;;6394148;22;20485;-72
2020/12/28 13:52:16;;;;;;;5.70;1.50;;;29.30;36.70;;;;;;6392745;22;20002;-72
2020/12/28 13:54:42;;;;;;;2.22;1.75;;;29.30;36.70;;;;;;6393524;22;20430;-72
2020/12/28 13:57:09;;;;;;;7.30;2.08;;;29.40;37.80;;;;;;6363944;22;20067;-72
2020/12/28 13:59:38;;;;;;;6.72;2.58;;;29.50;39.70;;;;;;6363834;22;20018;-72
2020/12/28 14:02:07;;;;;;;7.95;2.00;;;29.50;40.80;;;;;;6393083;22;20001;-72
2020/12/28 14:04:33;;;;;;;7.50;1.85;;;29.60;41.30;;;;;;6391850;22;19998;-72
2020/12/28 14:07:00;;;;;;;7.10;2.67;;;29.60;41.60;;;;;;6394608;22;20055;-72
2020/12/28 14:09:28;;;;;;;8.43;2.13;;;29.60;42.00;;;;;;6392067;22;20044;-72
2020/12/28 14:11:54;;;;;;;7.47;2.25;;;29.60;42.60;;;;;;6364243;22;20021;-72
2020/12/28 14:14:21;;;;;;;6.35;2.42;;;29.70;42.90;;;;;;6393206;22;20009;-73
2020/12/28 14:16:47;;;;;;;4.97;1.88;;;29.70;43.20;;;;;;6391684;22;19994;-72
2020/12/28 14:19:14;;;;;;;8.18;2.40;;;29.70;43.30;;;;;;6393354;22;20713;-72
2020/12/28 14:21:40;;;;;;;13.93;2.80;;;29.70;43.60;;;;;;6391618;22;20002;-72
2020/12/28 14:24:06;;;;;;;4.40;2.13;;;29.70;43.80;;;;;;6393508;22;20520;-72
2020/12/28 14:26:33;;;;;;;7.30;2.15;;;29.70;44.00;;;;;;6392968;22;20014;-72
2020/12/28 14:29:00;;;;;;;7.45;2.45;;;29.70;44.10;;;;;;6394270;22;20063;-72
2020/12/28 14:31:26;;;;;;;8.88;2.03;;;29.70;44.30;;;;;;6395020;22;20437;-72
2020/12/28 14:33:53;;;;;;;4.55;1.90;;;29.60;44.60;;;;;;6394133;22;19998;-72
2020/12/28 14:36:21;;;;;;;7.00;2.40;;;29.60;44.90;;;;;;6395202;22;19997;-72
2020/12/28 14:38:48;;;;;;;9.98;2.30;;;29.60;45.10;;;;;;6364943;22;20017;-72
2020/12/28 14:41:17;;;;;;;13.20;3.60;;;29.50;45.30;;;;;;6395655;22;20051;-72
2020/12/28 14:43:45;;;;;;;7.35;2.47;;;29.50;45.50;;;;;;6394289;22;20007;-72
2020/12/28 14:46:30;;;;;;;7.32;1.90;;;29.50;45.60;;;;;;6395449;22;20040;-72
2020/12/28 14:48:56;;;;;;;6.97;1.83;;;29.50;45.70;;;;;;6395134;22;19998;-72
2020/12/28 14:51:24;;;;;;;10.15;2.47;;;29.50;45.80;;;;;;6393848;22;20005;-72
2020/12/28 14:53:51;;;;;;;6.80;2.55;;;29.50;45.90;;;;;;6394986;22;20421;-72
2020/12/28 14:56:19;;;;;;;10.57;1.88;;;29.40;45.90;;;;;;6393675;22;20005;-72
2020/12/28 14:58:46;;;;;;;7.10;2.25;;;29.40;46.00;;;;;;6394651;22;20538;-72
2020/12/28 15:01:22;;;;;;;5.30;1.98;;;29.40;46.10;;;;;;6388181;22;20527;-71
2020/12/28 15:03:49;;;;;;;8.13;1.90;;;29.30;46.20;;;;;;6394165;22;20051;-71
2020/12/28 15:06:16;;;;;;;8.30;2.22;;;29.30;46.30;;;;;;6393783;22;20038;-71
2020/12/28 15:08:42;;;;;;;5.57;2.35;;;29.30;46.40;;;;;;6393205;22;20006;-72